sensor_id;sensor_type;location;lat;lon;timestamp;temperature;humidity
15959;DHT22;8078;47.822;9.402;2022-09-27T00:01:37;7.60;99.90
15959;DHT22;8078;47.822;9.402;2022-09-27T00:04:03;7.60;99.90
15959;DHT22;8078;47.822;9.402;2022-09-27T00:06:30;7.60;99.90
15959;DHT22;8078;47.822;9.402;2022-09-27T00:08:56;7.60;99.90
15959;DHT22;8078;47.822;9.402;2022-09-27T00:13:52;7.50;99.90
15959;DHT22;8078;47.822;9.402;2022-09-27T00:16:17;7.50;99.90
15959;DHT22;8078;47.822;9.402;2022-09-27T00:18:43;7.50;99.90
15959;DHT22;8078;47.822;9.402;2022-09-27T00:21:11;7.50;99.90
15959;DHT22;8078;47.822;9.402;2022-09-27T00:23:38;7.50;99.90
15959;DHT22;8078;47.822;9.402;2022-09-27T00:26:04;7.50;99.90
15959;DHT22;8078;47.822;9.402;2022-09-27T00:28:30;7.50;99.90
15959;DHT22;8078;47.822;9.402;2022-09-27T00:30:56;7.50;99.90
15959;DHT22;8078;47.822;9.402;2022-09-27T00:33:22;7.40;99.90
15959;DHT22;8078;47.822;9.402;2022-09-27T00:35:48;7.40;99.90
15959;DHT22;8078;47.822;9.402;2022-09-27T00:38:13;7.40;99.90
15959;DHT22;8078;47.822;9.402;2022-09-27T00:40:39;7.40;99.90
15959;DHT22;8078;47.822;9.402;2022-09-27T00:43:15;7.40;99.90
15959;DHT22;8078;47.822;9.402;2022-09-27T00:45:42;7.40;99.90
15959;DHT22;8078;47.822;9.402;2022-09-27T00:48:12;7.40;99.90
15959;DHT22;8078;47.822;9.402;2022-09-27T00:50:44;7.40;99.90
15959;DHT22;8078;47.822;9.402;2022-09-27T00:53:23;7.40;99.90
15959;DHT22;8078;47.822;9.402;2022-09-27T00:55:57;7.40;99.90
15959;DHT22;8078;47.822;9.402;2022-09-27T00:58:32;7.40;99.90
15959;DHT22;8078;47.822;9.402;2022-09-27T01:01:02;7.40;99.90
15959;DHT22;8078;47.822;9.402;2022-09-27T01:06:18;7.40;99.90
15959;DHT22;8078;47.822;9.402;2022-09-27T01:08:45;7.30;99.90
15959;DHT22;8078;47.822;9.402;2022-09-27T01:14:09;7.30;99.90
15959;DHT22;8078;47.822;9.402;2022-09-27T01:27:27;7.30;99.90
15959;DHT22;8078;47.822;9.402;2022-09-27T01:30:11;7.40;99.90
15959;DHT22;8078;47.822;9.402;2022-09-27T01:32:58;7.30;99.90
15959;DHT22;8078;47.822;9.402;2022-09-27T01:43:32;7.30;99.90
15959;DHT22;8078;47.822;9.402;2022-09-27T01:46:16;7.40;99.90
15959;DHT22;8078;47.822;9.402;2022-09-27T01:48:45;7.40;99.90
15959;DHT22;8078;47.822;9.402;2022-09-27T01:51:27;7.30;99.90
15959;DHT22;8078;47.822;9.402;2022-09-27T01:54:00;7.40;99.90
15959;DHT22;8078;47.822;9.402;2022-09-27T01:56:33;7.40;99.90
15959;DHT22;8078;47.822;9.402;2022-09-27T01:59:18;7.40;99.90
15959;DHT22;8078;47.822;9.402;2022-09-27T02:01:46;7.40;99.90
15959;DHT22;8078;47.822;9.402;2022-09-27T02:04:16;7.40;99.90
15959;DHT22;8078;47.822;9.402;2022-09-27T02:06:46;7.40;99.90
15959;DHT22;8078;47.822;9.402;2022-09-27T02:09:18;7.40;99.90
15959;DHT22;8078;47.822;9.402;2022-09-27T02:11:49;7.40;99.90
15959;DHT22;8078;47.822;9.402;2022-09-27T02:14:43;7.40;99.90
15959;DHT22;8078;47.822;9.402;2022-09-27T02:17:22;7.40;99.90
15959;DHT22;8078;47.822;9.402;2022-09-27T02:20:06;7.40;99.90
15959;DHT22;8078;47.822;9.402;2022-09-27T02:22:40;7.40;99.90
15959;DHT22;8078;47.822;9.402;2022-09-27T02:25:14;7.40;99.90
15959;DHT22;8078;47.822;9.402;2022-09-27T02:28:00;7.40;99.90
15959;DHT22;8078;47.822;9.402;2022-09-27T02:30:28;7.40;99.90
15959;DHT22;8078;47.822;9.402;2022-09-27T02:32:54;7.40;99.90
15959;DHT22;8078;47.822;9.402;2022-09-27T02:35:28;7.40;99.90
15959;DHT22;8078;47.822;9.402;2022-09-27T02:37:56;7.40;99.90
15959;DHT22;8078;47.822;9.402;2022-09-27T02:40:23;7.40;99.90
15959;DHT22;8078;47.822;9.402;2022-09-27T02:42:49;7.40;99.90
15959;DHT22;8078;47.822;9.402;2022-09-27T02:45:17;7.40;99.90
15959;DHT22;8078;47.822;9.402;2022-09-27T02:59:20;7.40;99.90
15959;DHT22;8078;47.822;9.402;2022-09-27T03:04:39;7.30;99.90
15959;DHT22;8078;47.822;9.402;2022-09-27T03:07:07;7.40;99.90
15959;DHT22;8078;47.822;9.402;2022-09-27T03:09:42;7.30;99.90
15959;DHT22;8078;47.822;9.402;2022-09-27T03:12:09;7.30;99.90
15959;DHT22;8078;47.822;9.402;2022-09-27T03:14:34;7.30;99.90
15959;DHT22;8078;47.822;9.402;2022-09-27T03:17:00;7.30;99.90
15959;DHT22;8078;47.822;9.402;2022-09-27T03:19:25;7.30;99.90
15959;DHT22;8078;47.822;9.402;2022-09-27T03:21:51;7.30;99.90
15959;DHT22;8078;47.822;9.402;2022-09-27T03:24:16;7.30;99.90
15959;DHT22;8078;47.822;9.402;2022-09-27T03:26:42;7.30;99.90
15959;DHT22;8078;47.822;9.402;2022-09-27T03:29:08;7.30;99.90
15959;DHT22;8078;47.822;9.402;2022-09-27T03:31:33;7.30;99.90
15959;DHT22;8078;47.822;9.402;2022-09-27T03:33:59;7.30;99.90
15959;DHT22;8078;47.822;9.402;2022-09-27T03:36:24;7.30;99.90
15959;DHT22;8078;47.822;9.402;2022-09-27T03:38:50;7.20;99.90
15959;DHT22;8078;47.822;9.402;2022-09-27T03:41:16;7.20;99.90
15959;DHT22;8078;47.822;9.402;2022-09-27T03:43:41;7.20;99.90
15959;DHT22;8078;47.822;9.402;2022-09-27T03:46:07;7.20;99.90
15959;DHT22;8078;47.822;9.402;2022-09-27T03:48:32;7.20;99.90
15959;DHT22;8078;47.822;9.402;2022-09-27T03:50:58;7.20;99.90
15959;DHT22;8078;47.822;9.402;2022-09-27T03:53:24;7.20;99.90
15959;DHT22;8078;47.822;9.402;2022-09-27T03:55:49;7.20;99.90
15959;DHT22;8078;47.822;9.402;2022-09-27T03:58:15;7.20;99.90
15959;DHT22;8078;47.822;9.402;2022-09-27T04:00:40;7.20;99.90
15959;DHT22;8078;47.822;9.402;2022-09-27T04:03:07;7.10;99.90
15959;DHT22;8078;47.822;9.402;2022-09-27T04:05:33;7.10;99.90
15959;DHT22;8078;47.822;9.402;2022-09-27T04:07:58;7.10;99.90
15959;DHT22;8078;47.822;9.402;2022-09-27T04:10:25;7.10;99.90
15959;DHT22;8078;47.822;9.402;2022-09-27T04:12:50;7.10;99.90
15959;DHT22;8078;47.822;9.402;2022-09-27T04:15:16;7.10;99.90
15959;DHT22;8078;47.822;9.402;2022-09-27T04:17:42;7.10;99.90
15959;DHT22;8078;47.822;9.402;2022-09-27T04:20:09;7.10;99.90
15959;DHT22;8078;47.822;9.402;2022-09-27T04:22:38;7.10;99.90
15959;DHT22;8078;47.822;9.402;2022-09-27T04:25:05;7.00;99.90
15959;DHT22;8078;47.822;9.402;2022-09-27T04:27:31;7.00;99.90
15959;DHT22;8078;47.822;9.402;2022-09-27T04:29:57;7.00;99.90
15959;DHT22;8078;47.822;9.402;2022-09-27T04:32:22;6.90;99.90
15959;DHT22;8078;47.822;9.402;2022-09-27T04:34:48;6.90;99.90
15959;DHT22;8078;47.822;9.402;2022-09-27T04:37:32;7.00;99.90
15959;DHT22;8078;47.822;9.402;2022-09-27T04:39:57;6.90;99.90
15959;DHT22;8078;47.822;9.402;2022-09-27T04:42:23;6.90;99.90
15959;DHT22;8078;47.822;9.402;2022-09-27T04:44:48;6.90;99.90
15959;DHT22;8078;47.822;9.402;2022-09-27T04:47:14;6.90;99.90
15959;DHT22;8078;47.822;9.402;2022-09-27T04:49:41;6.90;99.90
15959;DHT22;8078;47.822;9.402;2022-09-27T04:52:07;6.90;99.90
15959;DHT22;8078;47.822;9.402;2022-09-27T04:54:33;6.80;99.90
15959;DHT22;8078;47.822;9.402;2022-09-27T04:56:58;6.80;99.90
15959;DHT22;8078;47.822;9.402;2022-09-27T04:59:24;6.90;99.90
15959;DHT22;8078;47.822;9.402;2022-09-27T05:01:49;6.80;99.90
15959;DHT22;8078;47.822;9.402;2022-09-27T05:04:15;6.80;99.90
15959;DHT22;8078;47.822;9.402;2022-09-27T05:06:40;6.80;99.90
15959;DHT22;8078;47.822;9.402;2022-09-27T05:09:06;6.80;99.90
15959;DHT22;8078;47.822;9.402;2022-09-27T05:11:32;6.80;99.90
15959;DHT22;8078;47.822;9.402;2022-09-27T05:13:57;6.80;99.90
15959;DHT22;8078;47.822;9.402;2022-09-27T05:16:23;6.70;99.90
15959;DHT22;8078;47.822;9.402;2022-09-27T05:18:49;6.70;99.90
15959;DHT22;8078;47.822;9.402;2022-09-27T05:21:15;6.70;99.90
15959;DHT22;8078;47.822;9.402;2022-09-27T05:23:40;6.70;99.90
15959;DHT22;8078;47.822;9.402;2022-09-27T05:26:07;6.60;99.90
15959;DHT22;8078;47.822;9.402;2022-09-27T05:28:32;6.60;99.90
15959;DHT22;8078;47.822;9.402;2022-09-27T05:31:00;6.60;99.90
15959;DHT22;8078;47.822;9.402;2022-09-27T05:33:25;6.60;99.90
15959;DHT22;8078;47.822;9.402;2022-09-27T05:35:55;6.60;99.90
15959;DHT22;8078;47.822;9.402;2022-09-27T05:38:22;6.50;99.90
15959;DHT22;8078;47.822;9.402;2022-09-27T05:40:48;6.50;99.90
15959;DHT22;8078;47.822;9.402;2022-09-27T05:43:16;6.50;99.90
15959;DHT22;8078;47.822;9.402;2022-09-27T05:45:41;6.50;99.90
15959;DHT22;8078;47.822;9.402;2022-09-27T05:48:08;6.50;99.90
15959;DHT22;8078;47.822;9.402;2022-09-27T05:50:34;6.50;99.90
15959;DHT22;8078;47.822;9.402;2022-09-27T05:53:00;6.50;99.90
15959;DHT22;8078;47.822;9.402;2022-09-27T05:55:26;6.50;99.90
15959;DHT22;8078;47.822;9.402;2022-09-27T05:57:56;6.50;99.90
15959;DHT22;8078;47.822;9.402;2022-09-27T06:00:22;6.60;99.90
15959;DHT22;8078;47.822;9.402;2022-09-27T06:03:14;6.60;99.90
15959;DHT22;8078;47.822;9.402;2022-09-27T06:05:40;6.60;99.90
15959;DHT22;8078;47.822;9.402;2022-09-27T06:08:08;6.60;99.90
15959;DHT22;8078;47.822;9.402;2022-09-27T06:10:35;6.60;99.90
15959;DHT22;8078;47.822;9.402;2022-09-27T06:13:03;6.60;99.90
15959;DHT22;8078;47.822;9.402;2022-09-27T06:15:31;6.60;99.90
15959;DHT22;8078;47.822;9.402;2022-09-27T06:18:02;6.60;99.90
15959;DHT22;8078;47.822;9.402;2022-09-27T06:20:28;6.60;99.90
15959;DHT22;8078;47.822;9.402;2022-09-27T06:22:54;6.70;99.90
15959;DHT22;8078;47.822;9.402;2022-09-27T06:25:19;6.60;99.90
15959;DHT22;8078;47.822;9.402;2022-09-27T06:27:45;6.60;99.90
15959;DHT22;8078;47.822;9.402;2022-09-27T06:30:11;6.60;99.90
15959;DHT22;8078;47.822;9.402;2022-09-27T06:32:37;6.60;99.90
15959;DHT22;8078;47.822;9.402;2022-09-27T06:35:03;6.60;99.90
15959;DHT22;8078;47.822;9.402;2022-09-27T06:37:30;6.60;99.90
15959;DHT22;8078;47.822;9.402;2022-09-27T06:39:55;6.70;99.90
15959;DHT22;8078;47.822;9.402;2022-09-27T06:42:21;6.60;99.90
15959;DHT22;8078;47.822;9.402;2022-09-27T06:44:47;6.50;99.90
15959;DHT22;8078;47.822;9.402;2022-09-27T06:47:15;6.60;99.90
15959;DHT22;8078;47.822;9.402;2022-09-27T06:49:41;6.40;99.90
15959;DHT22;8078;47.822;9.402;2022-09-27T06:52:06;6.60;99.90
15959;DHT22;8078;47.822;9.402;2022-09-27T06:54:32;6.60;99.90
15959;DHT22;8078;47.822;9.402;2022-09-27T06:56:57;6.60;99.90
15959;DHT22;8078;47.822;9.402;2022-09-27T06:59:23;6.60;99.90
15959;DHT22;8078;47.822;9.402;2022-09-27T07:02:07;6.60;99.90
15959;DHT22;8078;47.822;9.402;2022-09-27T07:04:33;6.60;99.90
15959;DHT22;8078;47.822;9.402;2022-09-27T07:06:58;6.60;99.90
15959;DHT22;8078;47.822;9.402;2022-09-27T07:09:24;6.70;99.90
15959;DHT22;8078;47.822;9.402;2022-09-27T07:11:49;6.60;99.90
15959;DHT22;8078;47.822;9.402;2022-09-27T07:14:15;6.70;99.90
15959;DHT22;8078;47.822;9.402;2022-09-27T07:16:42;6.70;99.90
15959;DHT22;8078;47.822;9.402;2022-09-27T07:19:08;6.60;99.90
15959;DHT22;8078;47.822;9.402;2022-09-27T07:21:36;6.60;99.90
15959;DHT22;8078;47.822;9.402;2022-09-27T07:24:01;6.50;99.90
15959;DHT22;8078;47.822;9.402;2022-09-27T07:26:27;6.50;99.90
15959;DHT22;8078;47.822;9.402;2022-09-27T07:28:53;6.60;99.90
15959;DHT22;8078;47.822;9.402;2022-09-27T07:31:19;6.60;99.90
15959;DHT22;8078;47.822;9.402;2022-09-27T07:33:45;6.70;99.90
15959;DHT22;8078;47.822;9.402;2022-09-27T07:36:11;6.70;99.90
15959;DHT22;8078;47.822;9.402;2022-09-27T07:38:37;6.70;99.90
15959;DHT22;8078;47.822;9.402;2022-09-27T07:41:07;6.60;99.90
15959;DHT22;8078;47.822;9.402;2022-09-27T07:43:33;6.60;99.90
15959;DHT22;8078;47.822;9.402;2022-09-27T07:45:59;6.50;99.90
15959;DHT22;8078;47.822;9.402;2022-09-27T07:48:24;6.50;99.90
15959;DHT22;8078;47.822;9.402;2022-09-27T07:50:51;6.40;99.90
15959;DHT22;8078;47.822;9.402;2022-09-27T07:53:17;6.40;99.90
15959;DHT22;8078;47.822;9.402;2022-09-27T07:55:43;6.40;99.90
15959;DHT22;8078;47.822;9.402;2022-09-27T07:58:10;6.40;99.90
15959;DHT22;8078;47.822;9.402;2022-09-27T08:00:37;6.40;99.90
15959;DHT22;8078;47.822;9.402;2022-09-27T08:03:14;6.40;99.90
15959;DHT22;8078;47.822;9.402;2022-09-27T08:05:45;6.40;99.90
15959;DHT22;8078;47.822;9.402;2022-09-27T08:08:12;6.50;99.90
15959;DHT22;8078;47.822;9.402;2022-09-27T08:10:38;6.30;99.90
15959;DHT22;8078;47.822;9.402;2022-09-27T08:13:09;6.30;99.90
15959;DHT22;8078;47.822;9.402;2022-09-27T08:15:35;6.20;99.90
15959;DHT22;8078;47.822;9.402;2022-09-27T08:18:03;6.30;99.90
15959;DHT22;8078;47.822;9.402;2022-09-27T08:20:29;6.40;99.90
15959;DHT22;8078;47.822;9.402;2022-09-27T08:22:55;6.30;99.90
15959;DHT22;8078;47.822;9.402;2022-09-27T08:25:21;6.30;99.90
15959;DHT22;8078;47.822;9.402;2022-09-27T08:27:59;6.30;99.90
15959;DHT22;8078;47.822;9.402;2022-09-27T08:30:26;6.30;99.90
15959;DHT22;8078;47.822;9.402;2022-09-27T08:32:56;6.30;99.90
15959;DHT22;8078;47.822;9.402;2022-09-27T08:35:22;6.30;99.90
15959;DHT22;8078;47.822;9.402;2022-09-27T08:37:59;6.20;99.90
15959;DHT22;8078;47.822;9.402;2022-09-27T08:46:14;6.20;99.90
15959;DHT22;8078;47.822;9.402;2022-09-27T08:48:48;6.20;99.90
15959;DHT22;8078;47.822;9.402;2022-09-27T08:51:16;6.20;99.90
15959;DHT22;8078;47.822;9.402;2022-09-27T08:53:52;6.20;99.90
15959;DHT22;8078;47.822;9.402;2022-09-27T08:56:18;6.40;99.90
15959;DHT22;8078;47.822;9.402;2022-09-27T08:58:57;6.50;99.90
15959;DHT22;8078;47.822;9.402;2022-09-27T09:01:25;6.40;99.90
15959;DHT22;8078;47.822;9.402;2022-09-27T09:03:54;6.40;99.90
15959;DHT22;8078;47.822;9.402;2022-09-27T09:06:39;6.30;99.90
15959;DHT22;8078;47.822;9.402;2022-09-27T09:17:54;6.40;99.90
15959;DHT22;8078;47.822;9.402;2022-09-27T09:20:48;6.40;99.90
15959;DHT22;8078;47.822;9.402;2022-09-27T09:26:17;6.40;99.90
15959;DHT22;8078;47.822;9.402;2022-09-27T09:34:40;6.80;99.90
15959;DHT22;8078;47.822;9.402;2022-09-27T09:40:15;6.70;99.90
15959;DHT22;8078;47.822;9.402;2022-09-27T09:45:26;6.90;99.90
15959;DHT22;8078;47.822;9.402;2022-09-27T09:50:44;6.70;99.90
15959;DHT22;8078;47.822;9.402;2022-09-27T09:53:18;6.70;99.90
15959;DHT22;8078;47.822;9.402;2022-09-27T09:55:50;6.60;99.90
15959;DHT22;8078;47.822;9.402;2022-09-27T09:58:20;6.60;99.90
15959;DHT22;8078;47.822;9.402;2022-09-27T10:00:50;6.60;99.90
15959;DHT22;8078;47.822;9.402;2022-09-27T10:03:16;6.60;99.90
15959;DHT22;8078;47.822;9.402;2022-09-27T10:05:43;6.60;99.90
15959;DHT22;8078;47.822;9.402;2022-09-27T10:08:18;6.60;99.90
15959;DHT22;8078;47.822;9.402;2022-09-27T10:10:44;6.60;99.90
15959;DHT22;8078;47.822;9.402;2022-09-27T10:13:16;6.60;99.90
15959;DHT22;8078;47.822;9.402;2022-09-27T10:15:44;6.50;99.90
15959;DHT22;8078;47.822;9.402;2022-09-27T10:18:17;6.50;99.90
15959;DHT22;8078;47.822;9.402;2022-09-27T10:21:06;6.50;99.90
15959;DHT22;8078;47.822;9.402;2022-09-27T10:23:35;6.50;99.90
15959;DHT22;8078;47.822;9.402;2022-09-27T10:26:03;6.50;99.90
15959;DHT22;8078;47.822;9.402;2022-09-27T10:28:41;6.50;99.90
15959;DHT22;8078;47.822;9.402;2022-09-27T10:31:11;6.70;99.90
15959;DHT22;8078;47.822;9.402;2022-09-27T10:36:25;6.80;99.90
15959;DHT22;8078;47.822;9.402;2022-09-27T10:38:53;6.80;99.90
15959;DHT22;8078;47.822;9.402;2022-09-27T10:41:34;7.00;99.90
15959;DHT22;8078;47.822;9.402;2022-09-27T10:46:49;7.00;99.90
15959;DHT22;8078;47.822;9.402;2022-09-27T10:49:29;6.90;99.90
15959;DHT22;8078;47.822;9.402;2022-09-27T10:52:12;6.80;99.90
15959;DHT22;8078;47.822;9.402;2022-09-27T10:54:40;6.60;99.90
15959;DHT22;8078;47.822;9.402;2022-09-27T10:57:20;6.60;99.90
15959;DHT22;8078;47.822;9.402;2022-09-27T10:59:57;6.50;99.90
15959;DHT22;8078;47.822;9.402;2022-09-27T11:02:30;6.40;99.90
15959;DHT22;8078;47.822;9.402;2022-09-27T11:05:30;6.20;99.90
15959;DHT22;8078;47.822;9.402;2022-09-27T11:08:00;6.00;99.90
15959;DHT22;8078;47.822;9.402;2022-09-27T11:10:35;6.10;99.90
15959;DHT22;8078;47.822;9.402;2022-09-27T11:13:13;6.10;99.90
15959;DHT22;8078;47.822;9.402;2022-09-27T11:18:49;6.30;99.90
15959;DHT22;8078;47.822;9.402;2022-09-27T11:24:39;6.60;99.90
15959;DHT22;8078;47.822;9.402;2022-09-27T11:29:56;6.50;99.90
15959;DHT22;8078;47.822;9.402;2022-09-27T11:32:35;6.60;99.90
15959;DHT22;8078;47.822;9.402;2022-09-27T11:40:59;6.60;99.90
15959;DHT22;8078;47.822;9.402;2022-09-27T11:43:53;7.00;99.90
15959;DHT22;8078;47.822;9.402;2022-09-27T11:46:36;6.90;99.90
15959;DHT22;8078;47.822;9.402;2022-09-27T11:52:18;6.90;99.90
15959;DHT22;8078;47.822;9.402;2022-09-27T11:57:26;6.70;99.90
15959;DHT22;8078;47.822;9.402;2022-09-27T12:10:48;7.60;99.90
15959;DHT22;8078;47.822;9.402;2022-09-27T12:13:21;7.30;99.90
15959;DHT22;8078;47.822;9.402;2022-09-27T12:15:48;7.10;99.90
15959;DHT22;8078;47.822;9.402;2022-09-27T12:18:29;7.00;99.90
15959;DHT22;8078;47.822;9.402;2022-09-27T12:21:00;7.30;99.90
15959;DHT22;8078;47.822;9.402;2022-09-27T12:26:41;7.40;99.90
15959;DHT22;8078;47.822;9.402;2022-09-27T12:32:15;7.80;99.90
15959;DHT22;8078;47.822;9.402;2022-09-27T12:34:53;7.70;99.90
15959;DHT22;8078;47.822;9.402;2022-09-27T12:37:27;8.10;99.90
15959;DHT22;8078;47.822;9.402;2022-09-27T12:42:52;8.40;99.90
15959;DHT22;8078;47.822;9.402;2022-09-27T12:48:46;7.90;99.90
15959;DHT22;8078;47.822;9.402;2022-09-27T12:51:17;7.80;99.90
15959;DHT22;8078;47.822;9.402;2022-09-27T12:56:55;8.10;99.90
15959;DHT22;8078;47.822;9.402;2022-09-27T12:59:42;7.80;99.90
15959;DHT22;8078;47.822;9.402;2022-09-27T13:05:18;7.60;99.90
15959;DHT22;8078;47.822;9.402;2022-09-27T13:10:44;7.70;99.90
15959;DHT22;8078;47.822;9.402;2022-09-27T13:13:16;7.70;99.90
15959;DHT22;8078;47.822;9.402;2022-09-27T13:15:45;7.70;99.90
15959;DHT22;8078;47.822;9.402;2022-09-27T13:21:06;7.70;99.90
15959;DHT22;8078;47.822;9.402;2022-09-27T13:29:01;7.80;99.90
15959;DHT22;8078;47.822;9.402;2022-09-27T13:34:37;8.20;99.90
15959;DHT22;8078;47.822;9.402;2022-09-27T13:45:38;8.10;99.90
15959;DHT22;8078;47.822;9.402;2022-09-27T13:48:20;8.10;99.90
15959;DHT22;8078;47.822;9.402;2022-09-27T13:51:01;8.20;99.90
15959;DHT22;8078;47.822;9.402;2022-09-27T13:53:33;8.30;99.90
15959;DHT22;8078;47.822;9.402;2022-09-27T13:56:00;8.40;99.90
15959;DHT22;8078;47.822;9.402;2022-09-27T14:01:04;8.50;99.90
15959;DHT22;8078;47.822;9.402;2022-09-27T14:03:50;8.40;99.90
15959;DHT22;8078;47.822;9.402;2022-09-27T14:06:23;8.40;99.90
15959;DHT22;8078;47.822;9.402;2022-09-27T14:08:56;8.50;99.90
15959;DHT22;8078;47.822;9.402;2022-09-27T14:11:38;8.40;99.90
15959;DHT22;8078;47.822;9.402;2022-09-27T14:14:07;8.50;99.90
15959;DHT22;8078;47.822;9.402;2022-09-27T14:16:41;8.40;99.90
15959;DHT22;8078;47.822;9.402;2022-09-27T14:19:14;8.40;99.90
15959;DHT22;8078;47.822;9.402;2022-09-27T14:21:44;8.40;99.90
15959;DHT22;8078;47.822;9.402;2022-09-27T14:24:41;8.30;99.90
15959;DHT22;8078;47.822;9.402;2022-09-27T14:27:12;8.20;99.90
15959;DHT22;8078;47.822;9.402;2022-09-27T14:30:07;8.10;99.90
15959;DHT22;8078;47.822;9.402;2022-09-27T14:32:31;8.10;99.90
15959;DHT22;8078;47.822;9.402;2022-09-27T14:35:18;8.20;99.90
15959;DHT22;8078;47.822;9.402;2022-09-27T14:38:17;8.20;99.90
15959;DHT22;8078;47.822;9.402;2022-09-27T14:40:58;8.20;99.90
15959;DHT22;8078;47.822;9.402;2022-09-27T14:43:24;8.10;99.90
15959;DHT22;8078;47.822;9.402;2022-09-27T14:45:52;8.00;99.90
15959;DHT22;8078;47.822;9.402;2022-09-27T14:48:29;8.00;99.90
15959;DHT22;8078;47.822;9.402;2022-09-27T14:51:18;7.90;99.90
15959;DHT22;8078;47.822;9.402;2022-09-27T14:53:52;7.80;99.90
15959;DHT22;8078;47.822;9.402;2022-09-27T14:56:29;7.80;99.90
15959;DHT22;8078;47.822;9.402;2022-09-27T14:59:08;7.80;99.90
15959;DHT22;8078;47.822;9.402;2022-09-27T15:01:35;7.70;99.90
15959;DHT22;8078;47.822;9.402;2022-09-27T15:04:06;7.60;99.90
15959;DHT22;8078;47.822;9.402;2022-09-27T15:06:34;7.50;99.90
15959;DHT22;8078;47.822;9.402;2022-09-27T15:08:59;7.50;99.90
15959;DHT22;8078;47.822;9.402;2022-09-27T15:11:25;7.40;99.90
15959;DHT22;8078;47.822;9.402;2022-09-27T15:13:54;7.40;99.90
15959;DHT22;8078;47.822;9.402;2022-09-27T15:16:21;7.30;99.90
15959;DHT22;8078;47.822;9.402;2022-09-27T15:18:57;7.30;99.90
15959;DHT22;8078;47.822;9.402;2022-09-27T15:21:33;7.30;99.90
15959;DHT22;8078;47.822;9.402;2022-09-27T15:24:00;7.30;99.90
15959;DHT22;8078;47.822;9.402;2022-09-27T15:26:45;7.20;99.90
15959;DHT22;8078;47.822;9.402;2022-09-27T15:29:23;7.20;99.90
15959;DHT22;8078;47.822;9.402;2022-09-27T15:32:03;7.20;99.90
15959;DHT22;8078;47.822;9.402;2022-09-27T15:34:30;7.20;99.90
15959;DHT22;8078;47.822;9.402;2022-09-27T15:36:57;7.20;99.90
15959;DHT22;8078;47.822;9.402;2022-09-27T15:39:30;7.10;99.90
15959;DHT22;8078;47.822;9.402;2022-09-27T15:42:08;7.10;99.90
15959;DHT22;8078;47.822;9.402;2022-09-27T15:49:57;7.10;99.90
15959;DHT22;8078;47.822;9.402;2022-09-27T15:52:40;7.00;99.90
15959;DHT22;8078;47.822;9.402;2022-09-27T15:55:13;7.00;99.90
15959;DHT22;8078;47.822;9.402;2022-09-27T15:57:39;7.00;99.90
15959;DHT22;8078;47.822;9.402;2022-09-27T16:00:09;7.00;99.90
15959;DHT22;8078;47.822;9.402;2022-09-27T16:02:36;7.00;99.90
15959;DHT22;8078;47.822;9.402;2022-09-27T16:05:02;7.00;99.90
15959;DHT22;8078;47.822;9.402;2022-09-27T16:07:27;6.90;99.90
15959;DHT22;8078;47.822;9.402;2022-09-27T16:09:53;6.90;99.90
15959;DHT22;8078;47.822;9.402;2022-09-27T16:12:20;6.90;99.90
15959;DHT22;8078;47.822;9.402;2022-09-27T16:14:46;6.90;99.90
15959;DHT22;8078;47.822;9.402;2022-09-27T16:17:12;6.90;99.90
15959;DHT22;8078;47.822;9.402;2022-09-27T16:19:38;6.80;99.90
15959;DHT22;8078;47.822;9.402;2022-09-27T16:22:04;6.80;99.90
15959;DHT22;8078;47.822;9.402;2022-09-27T16:24:30;6.80;99.90
15959;DHT22;8078;47.822;9.402;2022-09-27T16:26:57;6.70;99.90
15959;DHT22;8078;47.822;9.402;2022-09-27T16:29:23;6.70;99.90
15959;DHT22;8078;47.822;9.402;2022-09-27T16:31:48;6.70;99.90
15959;DHT22;8078;47.822;9.402;2022-09-27T16:34:15;6.60;99.90
15959;DHT22;8078;47.822;9.402;2022-09-27T16:36:41;6.70;99.90
15959;DHT22;8078;47.822;9.402;2022-09-27T16:39:10;6.70;99.90
15959;DHT22;8078;47.822;9.402;2022-09-27T16:41:37;6.60;99.90
15959;DHT22;8078;47.822;9.402;2022-09-27T16:44:07;6.60;99.90
15959;DHT22;8078;47.822;9.402;2022-09-27T16:46:33;6.60;99.90
15959;DHT22;8078;47.822;9.402;2022-09-27T16:48:59;6.60;99.90
15959;DHT22;8078;47.822;9.402;2022-09-27T16:51:25;6.60;99.90
15959;DHT22;8078;47.822;9.402;2022-09-27T16:54:10;6.60;99.90
15959;DHT22;8078;47.822;9.402;2022-09-27T16:56:39;6.60;99.90
15959;DHT22;8078;47.822;9.402;2022-09-27T16:59:06;6.60;99.90
15959;DHT22;8078;47.822;9.402;2022-09-27T17:01:32;6.50;99.90
15959;DHT22;8078;47.822;9.402;2022-09-27T17:03:58;6.50;99.90
15959;DHT22;8078;47.822;9.402;2022-09-27T17:06:25;6.50;99.90
15959;DHT22;8078;47.822;9.402;2022-09-27T17:08:53;6.40;99.90
15959;DHT22;8078;47.822;9.402;2022-09-27T17:11:19;6.40;99.90
15959;DHT22;8078;47.822;9.402;2022-09-27T17:13:45;6.40;99.90
15959;DHT22;8078;47.822;9.402;2022-09-27T17:16:14;6.40;99.90
15959;DHT22;8078;47.822;9.402;2022-09-27T17:18:41;6.40;99.90
15959;DHT22;8078;47.822;9.402;2022-09-27T17:21:07;6.40;99.90
15959;DHT22;8078;47.822;9.402;2022-09-27T17:23:34;6.40;99.90
15959;DHT22;8078;47.822;9.402;2022-09-27T17:26:14;6.40;99.90
15959;DHT22;8078;47.822;9.402;2022-09-27T17:28:40;6.40;99.90
15959;DHT22;8078;47.822;9.402;2022-09-27T17:31:08;6.50;99.90
15959;DHT22;8078;47.822;9.402;2022-09-27T17:33:43;6.40;99.90
15959;DHT22;8078;47.822;9.402;2022-09-27T17:36:20;6.40;99.90
15959;DHT22;8078;47.822;9.402;2022-09-27T17:38:48;6.40;99.90
15959;DHT22;8078;47.822;9.402;2022-09-27T17:41:17;6.40;99.90
15959;DHT22;8078;47.822;9.402;2022-09-27T17:43:43;6.40;99.90
15959;DHT22;8078;47.822;9.402;2022-09-27T17:46:20;6.40;99.90
15959;DHT22;8078;47.822;9.402;2022-09-27T17:48:46;6.30;99.90
15959;DHT22;8078;47.822;9.402;2022-09-27T17:51:32;6.30;99.90
15959;DHT22;8078;47.822;9.402;2022-09-27T17:53:58;6.30;99.90
15959;DHT22;8078;47.822;9.402;2022-09-27T17:56:23;6.30;99.90
15959;DHT22;8078;47.822;9.402;2022-09-27T17:58:52;6.20;99.90
15959;DHT22;8078;47.822;9.402;2022-09-27T18:01:19;6.20;99.90
15959;DHT22;8078;47.822;9.402;2022-09-27T18:03:45;6.20;99.90
15959;DHT22;8078;47.822;9.402;2022-09-27T18:06:13;6.30;99.90
15959;DHT22;8078;47.822;9.402;2022-09-27T18:08:39;6.30;99.90
15959;DHT22;8078;47.822;9.402;2022-09-27T18:11:06;6.30;99.90
15959;DHT22;8078;47.822;9.402;2022-09-27T18:13:32;6.20;99.90
15959;DHT22;8078;47.822;9.402;2022-09-27T18:16:08;6.20;99.90
15959;DHT22;8078;47.822;9.402;2022-09-27T18:18:36;6.20;99.90
15959;DHT22;8078;47.822;9.402;2022-09-27T18:21:07;6.20;99.90
15959;DHT22;8078;47.822;9.402;2022-09-27T18:23:36;6.20;99.90
15959;DHT22;8078;47.822;9.402;2022-09-27T18:26:03;6.20;99.90
15959;DHT22;8078;47.822;9.402;2022-09-27T18:28:33;6.20;99.90
15959;DHT22;8078;47.822;9.402;2022-09-27T18:31:07;6.30;99.90
15959;DHT22;8078;47.822;9.402;2022-09-27T18:33:34;6.30;99.90
15959;DHT22;8078;47.822;9.402;2022-09-27T18:38:29;6.40;99.90
15959;DHT22;8078;47.822;9.402;2022-09-27T18:40:54;6.40;99.90
15959;DHT22;8078;47.822;9.402;2022-09-27T18:43:23;6.40;99.90
15959;DHT22;8078;47.822;9.402;2022-09-27T18:45:49;6.40;99.90
15959;DHT22;8078;47.822;9.402;2022-09-27T18:48:15;6.40;99.90
15959;DHT22;8078;47.822;9.402;2022-09-27T18:50:40;6.40;99.90
15959;DHT22;8078;47.822;9.402;2022-09-27T18:53:06;6.40;99.90
15959;DHT22;8078;47.822;9.402;2022-09-27T18:55:36;6.40;99.90
15959;DHT22;8078;47.822;9.402;2022-09-27T18:58:03;6.40;99.90
15959;DHT22;8078;47.822;9.402;2022-09-27T19:00:28;6.40;99.90
15959;DHT22;8078;47.822;9.402;2022-09-27T19:02:54;6.40;99.90